Time;durP1;ratioP1;P1;durP2;ratioP2;P2;SDS_P1;SDS_P2;PMS_P1;PMS_P2;Temp;Humidity;BMP_temperature;BMP_pressure;BME280_temperature;BME280_humidity;BME280_pressure;Samples;Min_cycle;Max_cycle;Signal;HPM_P1;HPM_P2
2023/02/14 00:01:31;;;;;;;1.80;0.70;;;25.10;65.00;;;;;;4124406;28;20034;-46
2023/02/14 00:03:53;;;;;;;1.33;0.75;;;25.20;65.00;;;;;;4122450;28;20109;-36
2023/02/14 00:06:16;;;;;;;1.55;0.68;;;25.20;65.00;;;;;;4114097;28;20429;-36
2023/02/14 00:08:43;;;;;;;2.57;0.70;;;25.20;64.90;;;;;;4115421;28;20038;-36
2023/02/14 00:11:05;;;;;;;2.88;0.73;;;25.30;65.00;;;;;;4117353;28;20042;-46
2023/02/14 00:13:28;;;;;;;2.17;0.65;;;25.30;65.00;;;;;;4114849;28;20545;-46
2023/02/14 00:15:50;;;;;;;1.55;0.50;;;25.30;64.90;;;;;;4115479;28;20034;-47
2023/02/14 00:18:13;;;;;;;2.78;0.95;;;25.40;64.90;;;;;;4115520;28;20097;-47
2023/02/14 00:20:35;;;;;;;1.13;0.60;;;25.40;64.80;;;;;;4111694;28;20125;-47
2023/02/14 00:22:59;;;;;;;1.13;0.50;;;25.40;64.90;;;;;;4115795;28;20364;-46
2023/02/14 00:25:21;;;;;;;;;;;25.40;64.70;;;;;;4122112;28;20042;-46
2023/02/14 00:27:44;;;;;;;2.47;0.50;;;25.50;64.80;;;;;;4119852;28;19913;-47
2023/02/14 00:30:09;;;;;;;2.05;0.57;;;25.50;64.80;;;;;;4115590;28;20042;-46
2023/02/14 00:32:31;;;;;;;1.23;0.70;;;25.50;64.70;;;;;;4120316;28;20895;-47
2023/02/14 00:34:54;;;;;;;1.50;0.60;;;25.50;64.70;;;;;;4115085;28;20034;-48
2023/02/14 00:37:16;;;;;;;1.65;0.57;;;25.60;64.70;;;;;;4120847;28;20042;-46
2023/02/14 00:39:39;;;;;;;1.55;0.60;;;25.60;64.70;;;;;;4120434;28;20041;-46
2023/02/14 00:42:01;;;;;;;2.20;1.00;;;25.60;64.70;;;;;;4118813;28;20549;-47
2023/02/14 00:44:24;;;;;;;1.58;0.50;;;25.60;64.70;;;;;;4115688;28;20043;-47
2023/02/14 00:46:46;;;;;;;3.35;0.60;;;25.60;64.70;;;;;;4117059;28;20132;-47
2023/02/14 00:49:09;;;;;;;1.55;0.60;;;25.60;64.80;;;;;;4122721;28;20044;-50
2023/02/14 00:51:32;;;;;;;2.28;0.70;;;25.60;64.70;;;;;;4120949;28;20104;-47
2023/02/14 00:53:54;;;;;;;1.63;0.50;;;25.70;64.80;;;;;;4118973;28;20045;-47
2023/02/14 00:56:18;;;;;;;1.70;0.80;;;25.70;64.80;;;;;;4124238;28;20157;-46
2023/02/14 00:58:41;;;;;;;;;;;25.70;64.70;;;;;;4123010;28;20050;-51
2023/02/14 01:01:04;;;;;;;0.93;0.43;;;25.70;64.80;;;;;;4116450;28;20297;-46
2023/02/14 01:03:26;;;;;;;0.77;0.50;;;25.70;64.80;;;;;;4126686;28;20034;-48
2023/02/14 01:05:49;;;;;;;2.83;0.88;;;25.70;64.70;;;;;;4114552;28;20042;-45
2023/02/14 01:08:12;;;;;;;2.63;1.15;;;25.80;64.70;;;;;;4117597;28;20042;-46
2023/02/14 01:10:37;;;;;;;3.17;0.70;;;25.80;64.70;;;;;;4117887;28;20418;-46
2023/02/14 01:12:59;;;;;;;2.22;1.15;;;25.80;64.70;;;;;;4120044;28;20046;-48
2023/02/14 01:15:22;;;;;;;1.58;0.50;;;25.80;65.20;;;;;;4117296;28;20038;-46
2023/02/14 01:17:44;;;;;;;3.58;1.00;;;25.80;64.80;;;;;;4104549;28;20046;-47
2023/02/14 01:20:08;;;;;;;3.20;0.80;;;25.80;64.70;;;;;;4110543;28;20046;-47
2023/02/14 01:22:35;;;;;;;4.30;1.13;;;25.90;64.70;;;;;;4116420;28;20044;-45
2023/02/14 01:24:58;;;;;;;3.88;1.25;;;25.90;64.70;;;;;;4125043;28;20111;-47
2023/02/14 01:27:20;;;;;;;1.92;0.90;;;25.90;64.80;;;;;;4108207;28;20037;-40
2023/02/14 01:29:42;;;;;;;2.10;0.85;;;25.90;64.70;;;;;;4113183;28;20076;-38
2023/02/14 01:32:05;;;;;;;3.10;1.10;;;25.90;64.60;;;;;;4110764;28;20042;-37
2023/02/14 01:34:27;;;;;;;2.88;0.80;;;25.90;64.60;;;;;;4113662;28;20034;-37
2023/02/14 01:36:50;;;;;;;2.22;0.60;;;25.90;64.70;;;;;;4111936;28;20046;-39
2023/02/14 01:39:14;;;;;;;1.90;0.98;;;25.90;64.70;;;;;;4109590;28;20050;-39
2023/02/14 01:41:38;;;;;;;2.90;1.27;;;25.90;64.70;;;;;;4112889;28;20088;-35
2023/02/14 01:44:05;;;;;;;3.28;1.23;;;25.90;64.70;;;;;;4117733;28;20048;-37
2023/02/14 01:46:30;;;;;;;5.28;1.20;;;26.00;64.70;;;;;;4111511;28;20121;-38
2023/02/14 01:48:58;;;;;;;3.97;1.25;;;26.00;64.60;;;;;;4118927;28;20897;-37
2023/02/14 01:51:21;;;;;;;3.88;1.40;;;26.00;64.70;;;;;;4115165;28;20502;-37
2023/02/14 01:53:43;;;;;;;5.72;1.65;;;26.00;64.40;;;;;;4119771;28;20034;-38
2023/02/14 01:56:12;;;;;;;4.57;1.45;;;26.00;64.30;;;;;;4115590;28;20414;-38
2023/02/14 01:58:39;;;;;;;4.07;1.52;;;26.00;64.10;;;;;;4112966;28;20398;-38
2023/02/14 02:01:03;;;;;;;4.07;1.40;;;25.90;64.00;;;;;;4115218;28;20589;-36
2023/02/14 02:03:31;;;;;;;2.78;1.25;;;25.90;63.90;;;;;;4113389;28;20042;-39
2023/02/14 02:06:05;;;;;;;3.88;1.40;;;25.90;63.80;;;;;;4126412;28;20034;-40
2023/02/14 02:08:27;;;;;;;3.10;1.20;;;25.90;63.70;;;;;;4115155;28;20050;-37
2023/02/14 02:10:50;;;;;;;3.58;1.50;;;25.90;63.70;;;;;;4118730;28;20219;-40
2023/02/14 02:13:19;;;;;;;3.43;1.10;;;25.90;63.70;;;;;;4117461;28;20037;-37
2023/02/14 02:16:11;;;;;;;4.72;1.67;;;25.90;63.70;;;;;;4113707;28;20295;-38
2023/02/14 02:19:04;;;;;;;4.60;1.63;;;25.90;63.60;;;;;;4115560;28;20501;-38
2023/02/14 02:21:57;;;;;;;1.98;1.00;;;25.80;63.50;;;;;;4113782;28;20078;-38
2023/02/14 02:24:59;;;;;;;4.47;1.15;;;25.80;63.50;;;;;;4113958;28;20500;-38
2023/02/14 02:27:58;;;;;;;3.08;1.60;;;25.80;63.50;;;;;;4067517;28;20445;-37
2023/02/14 02:30:35;;;;;;;3.17;1.13;;;25.80;63.50;;;;;;4116192;28;20393;-37
2023/02/14 02:33:27;;;;;;;3.42;1.13;;;25.80;63.60;;;;;;4113343;28;20659;-38
2023/02/14 02:35:56;;;;;;;1.92;1.00;;;25.90;63.70;;;;;;4123664;28;20489;-38
2023/02/14 02:38:45;;;;;;;2.35;1.13;;;25.90;63.90;;;;;;4115231;28;20343;-40
2023/02/14 02:41:30;;;;;;;2.30;1.02;;;25.90;64.00;;;;;;4119029;28;20037;-37
2023/02/14 02:44:11;;;;;;;2.97;1.40;;;25.90;64.10;;;;;;4118949;28;20170;-38
2023/02/14 02:46:59;;;;;;;2.28;1.27;;;25.90;64.20;;;;;;4120077;28;20168;-48
2023/02/14 02:56:44;;;;;;;2.58;0.90;;;26.10;64.30;;;;;;4116325;28;20080;-38
2023/02/14 02:58:20;;;;;;;3.47;1.25;;;26.10;64.30;;;;;;4113000;28;20050;-38
2023/02/14 03:00:43;;;;;;;2.08;0.80;;;26.10;64.30;;;;;;4113692;28;20046;-37
2023/02/14 03:05:47;;;;;;;1.90;0.95;;;26.10;64.30;;;;;;4122373;28;20583;-38
2023/02/14 03:08:09;;;;;;;2.15;0.88;;;26.10;64.20;;;;;;4122990;28;20034;-38
2023/02/14 03:10:37;;;;;;;4.45;1.00;;;26.20;64.20;;;;;;4122928;28;20062;-42
2023/02/14 03:13:18;;;;;;;3.22;1.20;;;26.20;64.20;;;;;;4112806;28;20045;-38
2023/02/14 03:16:21;;;;;;;2.80;0.95;;;26.20;64.20;;;;;;4123249;28;20049;-40
2023/02/14 03:22:10;;;;;;;4.40;1.20;;;26.30;64.20;;;;;;4120896;28;20550;-39
2023/02/14 03:24:45;;;;;;;2.83;1.10;;;26.30;64.10;;;;;;4117753;28;20426;-38
2023/02/14 03:27:31;;;;;;;1.50;0.60;;;26.30;64.10;;;;;;4120788;28;20034;-36
2023/02/14 03:30:00;;;;;;;5.35;0.90;;;26.40;64.00;;;;;;4117185;28;20026;-38
2023/02/14 03:32:40;;;;;;;2.60;0.90;;;26.40;63.90;;;;;;4112458;28;20436;-42
2023/02/14 03:35:21;;;;;;;4.05;1.33;;;26.40;63.70;;;;;;4113369;28;20639;-36
2023/02/14 03:37:52;;;;;;;4.45;1.65;;;26.40;63.70;;;;;;4117452;28;20092;-36
2023/02/14 03:40:35;;;;;;;4.70;1.20;;;26.50;63.70;;;;;;4114452;28;20156;-37
2023/02/14 03:43:03;;;;;;;5.93;1.00;;;26.50;63.70;;;;;;4122333;28;20205;-37
2023/02/14 03:45:36;;;;;;;3.53;1.05;;;26.40;63.50;;;;;;4111243;28;20571;-37
2023/02/14 03:48:03;;;;;;;6.22;1.45;;;26.50;63.70;;;;;;4108319;28;20990;-37
2023/02/14 03:50:26;;;;;;;8.68;1.50;;;26.50;63.80;;;;;;4110730;28;20413;-38
2023/02/14 03:52:50;;;;;;;;;;;26.50;63.60;;;;;;4112694;28;20556;-38
2023/02/14 03:55:19;;;;;;;8.20;1.75;;;26.50;63.60;;;;;;4120157;28;19990;-43
2023/02/14 03:57:44;;;;;;;10.05;1.75;;;26.50;63.50;;;;;;4115735;28;20115;-38
2023/02/14 04:00:08;;;;;;;8.65;2.17;;;26.50;63.30;;;;;;4115986;28;20038;-37
2023/02/14 04:02:45;;;;;;;9.48;1.70;;;26.60;63.30;;;;;;4130378;28;20045;-40
2023/02/14 04:05:14;;;;;;;11.65;1.80;;;26.60;63.30;;;;;;4119568;28;20038;-42
2023/02/14 04:07:51;;;;;;;13.00;1.77;;;26.50;63.30;;;;;;4117067;28;20038;-40
2023/02/14 04:10:15;;;;;;;15.80;1.88;;;26.50;63.30;;;;;;4124717;28;20061;-37
2023/02/14 04:12:37;;;;;;;7.55;1.60;;;26.50;63.30;;;;;;4119067;28;20049;-38
2023/02/14 04:14:59;;;;;;;9.30;1.92;;;26.50;62.60;;;;;;4120019;28;20038;-37
2023/02/14 04:20:06;;;;;;;4.25;1.50;;;26.50;62.80;;;;;;4122317;28;20057;-39
2023/02/14 04:22:29;;;;;;;10.05;1.80;;;26.50;63.00;;;;;;4121028;28;20035;-39
2023/02/14 04:24:51;;;;;;;5.30;1.23;;;26.50;63.00;;;;;;4120169;28;20038;-37
2023/02/14 04:27:14;;;;;;;4.47;1.25;;;26.50;63.10;;;;;;4119724;28;20744;-40
2023/02/14 04:29:42;;;;;;;4.50;1.55;;;26.50;63.20;;;;;;4122668;28;20052;-41
2023/02/14 04:32:07;;;;;;;5.43;1.63;;;26.50;63.30;;;;;;4130981;28;20045;-39
2023/02/14 04:34:29;;;;;;;6.30;2.00;;;26.50;63.40;;;;;;4126491;28;20584;-41
2023/02/14 04:36:51;;;;;;;8.10;1.90;;;26.50;63.60;;;;;;4124734;28;20050;-41
2023/02/14 04:39:14;;;;;;;6.50;1.83;;;26.50;63.60;;;;;;4122503;28;20133;-41
2023/02/14 04:41:36;;;;;;;3.72;2.00;;;26.50;63.60;;;;;;4123123;28;20785;-40
2023/02/14 04:43:59;;;;;;;8.13;1.90;;;26.60;63.70;;;;;;4127481;28;20305;-37
2023/02/14 04:46:21;;;;;;;8.43;1.88;;;26.60;63.70;;;;;;4127889;28;20037;-41
2023/02/14 04:48:43;;;;;;;8.20;1.77;;;26.60;63.60;;;;;;4124644;28;20038;-39
2023/02/14 04:51:06;;;;;;;4.70;1.50;;;26.60;63.60;;;;;;4126014;28;20038;-39
2023/02/14 04:53:28;;;;;;;4.40;1.08;;;26.60;63.60;;;;;;4127438;28;20049;-40
2023/02/14 04:55:51;;;;;;;3.92;1.27;;;26.70;63.60;;;;;;4130015;28;20112;-41
2023/02/14 04:58:13;;;;;;;3.90;1.20;;;26.70;63.50;;;;;;4114429;28;20177;-42
2023/02/14 05:00:36;;;;;;;5.65;2.30;;;26.70;63.40;;;;;;4121306;28;20121;-41
2023/02/14 05:02:58;;;;;;;4.35;1.55;;;26.70;63.40;;;;;;4118959;28;20038;-42
2023/02/14 05:05:20;;;;;;;3.88;1.30;;;26.70;63.30;;;;;;4125428;28;20030;-39
2023/02/14 05:07:46;;;;;;;4.28;1.67;;;26.80;63.30;;;;;;4122464;28;20497;-39
2023/02/14 05:10:09;;;;;;;4.47;1.10;;;26.80;63.30;;;;;;4119576;28;20037;-39
2023/02/14 05:12:31;;;;;;;3.28;1.30;;;26.80;63.30;;;;;;4117811;28;20561;-39
2023/02/14 05:14:55;;;;;;;8.27;1.88;;;26.80;63.20;;;;;;4119703;28;20037;-39
2023/02/14 05:17:17;;;;;;;5.90;1.92;;;26.80;63.10;;;;;;4120612;28;20552;-38
2023/02/14 05:19:39;;;;;;;4.47;1.42;;;26.80;63.10;;;;;;4117798;28;20042;-38
2023/02/14 05:22:02;;;;;;;2.75;1.30;;;26.80;63.00;;;;;;4123899;28;20054;-41
2023/02/14 05:24:24;;;;;;;3.80;1.00;;;26.80;63.00;;;;;;4123455;28;20042;-37
2023/02/14 05:26:47;;;;;;;6.47;1.30;;;26.80;63.00;;;;;;4127521;28;20038;-38
2023/02/14 05:29:09;;;;;;;3.28;1.08;;;26.80;63.00;;;;;;4120280;28;20037;-38
2023/02/14 05:31:32;;;;;;;2.05;0.90;;;26.80;63.00;;;;;;4123397;28;20037;-37
2023/02/14 05:33:54;;;;;;;3.42;1.10;;;26.80;63.00;;;;;;4119157;28;20046;-37
2023/02/14 05:36:16;;;;;;;3.10;1.40;;;26.70;63.00;;;;;;4125937;28;20045;-37
2023/02/14 05:38:39;;;;;;;3.78;1.50;;;26.70;63.10;;;;;;4122541;28;20054;-37
2023/02/14 05:41:02;;;;;;;2.17;1.20;;;26.70;63.00;;;;;;4131469;28;20037;-37
2023/02/14 05:43:25;;;;;;;5.22;1.73;;;26.70;63.10;;;;;;4127637;28;20718;-40
2023/02/14 05:45:48;;;;;;;5.63;1.50;;;26.70;63.00;;;;;;4128555;28;20089;-42
2023/02/14 05:48:10;;;;;;;5.05;1.25;;;26.70;63.50;;;;;;4126979;28;20053;-38
2023/02/14 05:50:33;;;;;;;3.75;0.80;;;26.70;63.60;;;;;;4129736;28;20080;-39
2023/02/14 05:52:56;;;;;;;4.82;1.42;;;26.70;63.60;;;;;;4129237;28;20383;-40
2023/02/14 05:55:18;;;;;;;5.97;1.73;;;26.70;62.60;;;;;;4127295;28;20125;-40
2023/02/14 05:57:40;;;;;;;5.38;1.10;;;26.70;62.80;;;;;;4123362;28;20509;-39
2023/02/14 06:00:05;;;;;;;3.17;1.13;;;26.70;62.90;;;;;;4127160;28;20057;-39
2023/02/14 06:02:28;;;;;;;3.70;1.13;;;26.80;63.00;;;;;;4123834;28;20044;-40
2023/02/14 06:04:50;;;;;;;3.53;1.30;;;26.90;62.70;;;;;;4127743;28;20498;-40
2023/02/14 06:07:13;;;;;;;2.75;1.00;;;26.90;62.60;;;;;;4125241;28;20642;-39
2023/02/14 06:09:35;;;;;;;3.17;1.08;;;26.90;62.30;;;;;;4125585;28;20143;-39
2023/02/14 06:11:57;;;;;;;2.28;0.80;;;26.90;62.20;;;;;;4127739;28;20529;-39
2023/02/14 06:14:20;;;;;;;2.33;1.00;;;27.00;62.10;;;;;;4131853;28;20077;-40
2023/02/14 06:16:42;;;;;;;2.35;1.15;;;27.00;62.00;;;;;;4120858;28;20149;-39
2023/02/14 06:19:05;;;;;;;1.73;0.80;;;27.00;62.00;;;;;;4121738;28;20473;-41
2023/02/14 06:21:27;;;;;;;2.83;0.95;;;27.00;61.80;;;;;;4125540;28;20042;-40
2023/02/14 06:23:50;;;;;;;2.28;0.80;;;27.00;61.80;;;;;;4135258;28;20037;-42
2023/02/14 06:26:12;;;;;;;2.80;0.75;;;27.00;61.70;;;;;;4126643;28;20558;-42
2023/02/14 06:28:34;;;;;;;2.80;1.10;;;27.00;61.60;;;;;;4122082;28;20121;-39
2023/02/14 06:30:57;;;;;;;3.47;1.10;;;27.00;62.30;;;;;;4126952;28;20037;-39
2023/02/14 06:33:19;;;;;;;2.53;0.70;;;27.00;61.50;;;;;;4124037;28;20038;-39
2023/02/14 06:35:42;;;;;;;2.50;1.00;;;27.00;61.60;;;;;;4123213;28;20085;-39
2023/02/14 06:38:05;;;;;;;3.80;1.25;;;27.00;61.50;;;;;;4123777;28;20050;-39
2023/02/14 06:40:28;;;;;;;2.10;1.02;;;27.00;61.50;;;;;;4133477;28;20513;-40
2023/02/14 06:42:51;;;;;;;1.40;1.00;;;27.00;61.50;;;;;;4129795;28;20141;-39
2023/02/14 06:45:13;;;;;;;2.85;1.58;;;27.00;61.40;;;;;;4124428;28;20143;-39
2023/02/14 06:47:36;;;;;;;2.63;1.40;;;27.00;61.40;;;;;;4128403;28;20496;-39
2023/02/14 06:50:03;;;;;;;2.20;1.20;;;27.00;61.50;;;;;;4126070;28;20046;-40
2023/02/14 06:52:25;;;;;;;2.92;1.60;;;27.00;61.50;;;;;;4130962;28;20045;-44
2023/02/14 06:54:48;;;;;;;3.08;1.58;;;27.00;61.50;;;;;;4124633;28;20521;-39
2023/02/14 06:57:10;;;;;;;3.45;1.52;;;26.90;61.50;;;;;;4131005;28;20042;-40
2023/02/14 06:59:33;;;;;;;2.72;1.65;;;26.90;61.50;;;;;;4126636;28;20111;-40
2023/02/14 07:01:55;;;;;;;2.40;1.30;;;26.90;61.50;;;;;;4125193;28;20033;-39
2023/02/14 07:04:18;;;;;;;2.90;1.20;;;26.90;61.50;;;;;;4125470;28;20034;-38
2023/02/14 07:06:40;;;;;;;2.75;1.40;;;26.90;61.60;;;;;;4121037;28;20119;-41
2023/02/14 07:09:03;;;;;;;2.75;1.27;;;26.90;61.60;;;;;;4116893;28;20041;-40
2023/02/14 07:11:27;;;;;;;2.85;1.00;;;26.80;61.50;;;;;;4124124;28;20465;-38
2023/02/14 07:13:49;;;;;;;1.95;1.02;;;26.90;61.60;;;;;;4118821;28;20042;-45
2023/02/14 07:16:12;;;;;;;1.65;0.82;;;26.80;61.60;;;;;;4118699;28;20190;-49
2023/02/14 07:18:34;;;;;;;2.13;0.77;;;26.80;61.60;;;;;;4124654;28;20315;-43
2023/02/14 07:20:57;;;;;;;5.53;1.08;;;26.80;62.40;;;;;;4120179;28;20244;-38
2023/02/14 07:23:19;;;;;;;5.47;1.10;;;26.70;62.50;;;;;;4122597;28;20042;-38
2023/02/14 07:25:42;;;;;;;2.75;1.02;;;26.60;63.00;;;;;;4125007;28;20046;-39
2023/02/14 07:28:04;;;;;;;3.47;1.23;;;26.60;63.40;;;;;;4122840;28;20049;-37
2023/02/14 07:30:27;;;;;;;4.78;1.45;;;26.50;63.50;;;;;;4126420;28;20120;-37
2023/02/14 07:32:49;;;;;;;2.33;1.10;;;26.50;63.80;;;;;;4120613;28;20038;-39
2023/02/14 07:35:12;;;;;;;2.30;0.90;;;26.50;63.90;;;;;;4118057;28;20042;-40
2023/02/14 07:37:35;;;;;;;2.42;0.90;;;26.50;64.10;;;;;;4120653;28;20049;-40
2023/02/14 07:39:58;;;;;;;1.98;1.15;;;26.50;64.30;;;;;;4119331;28;20058;-40
2023/02/14 07:42:20;;;;;;;2.05;0.95;;;26.50;64.30;;;;;;4120987;28;20039;-40
2023/02/14 07:44:45;;;;;;;3.83;1.40;;;26.40;64.30;;;;;;4117093;28;20115;-42
2023/02/14 07:47:08;;;;;;;2.78;0.70;;;26.40;64.40;;;;;;4124422;28;20771;-39
2023/02/14 07:49:30;;;;;;;1.90;0.90;;;26.40;64.40;;;;;;4106727;28;20206;-39
2023/02/14 07:51:53;;;;;;;2.42;1.10;;;26.50;64.40;;;;;;4120076;28;20544;-39
2023/02/14 07:54:18;;;;;;;2.92;0.90;;;26.50;64.40;;;;;;4117439;28;20066;-41
2023/02/14 07:56:40;;;;;;;6.15;1.00;;;26.40;64.40;;;;;;4112395;28;20071;-39
2023/02/14 07:59:03;;;;;;;4.00;1.50;;;26.40;64.40;;;;;;4113481;28;20164;-39
2023/02/14 08:01:25;;;;;;;3.28;1.08;;;26.40;64.40;;;;;;4115845;28;20500;-41
2023/02/14 08:03:51;;;;;;;2.17;0.82;;;26.40;64.30;;;;;;4115948;28;20081;-40
2023/02/14 08:06:14;;;;;;;2.15;0.70;;;26.40;64.40;;;;;;4113913;28;20120;-38
2023/02/14 08:08:36;;;;;;;3.08;0.90;;;26.40;64.30;;;;;;4114092;28;20045;-43
2023/02/14 08:10:59;;;;;;;1.90;0.90;;;26.40;64.40;;;;;;4111094;28;20048;-39
2023/02/14 08:13:21;;;;;;;2.50;0.80;;;26.40;64.50;;;;;;4117452;28;20042;-39
2023/02/14 08:18:26;;;;;;;5.80;1.27;;;26.40;64.50;;;;;;4121923;28;20093;-42
2023/02/14 08:20:49;;;;;;;7.05;1.48;;;26.40;64.50;;;;;;4123191;28;20030;-39
2023/02/14 08:23:12;;;;;;;5.53;1.40;;;26.40;64.50;;;;;;4122583;28;20117;-38
2023/02/14 08:25:34;;;;;;;6.70;1.20;;;26.40;64.50;;;;;;4129998;28;20148;-42
2023/02/14 08:27:56;;;;;;;3.45;1.25;;;26.40;64.50;;;;;;4123078;28;20042;-40
2023/02/14 08:30:19;;;;;;;2.95;0.90;;;26.40;64.50;;;;;;4121598;28;20045;-39
2023/02/14 08:32:41;;;;;;;5.38;1.20;;;26.30;64.50;;;;;;4122951;28;20038;-38
2023/02/14 08:35:04;;;;;;;2.88;0.80;;;26.40;64.60;;;;;;4118617;28;20156;-39
2023/02/14 08:37:26;;;;;;;1.75;1.00;;;26.30;64.50;;;;;;4123429;28;20526;-38
2023/02/14 08:39:49;;;;;;;3.08;0.70;;;26.40;64.60;;;;;;4120200;28;20506;-37
2023/02/14 08:42:11;;;;;;;2.38;0.98;;;26.30;64.70;;;;;;4117326;28;20037;-36
2023/02/14 08:44:34;;;;;;;6.63;1.20;;;26.40;64.60;;;;;;4119853;28;20057;-36
2023/02/14 08:46:56;;;;;;;1.63;0.90;;;26.40;64.40;;;;;;4121135;28;20045;-38
2023/02/14 08:49:19;;;;;;;2.95;0.98;;;26.50;64.30;;;;;;4123741;28;20384;-38
2023/02/14 08:51:41;;;;;;;3.70;1.05;;;26.50;64.20;;;;;;4122822;28;20078;-40
2023/02/14 08:54:04;;;;;;;2.78;0.82;;;26.50;64.10;;;;;;4126067;28;20068;-38
2023/02/14 08:56:26;;;;;;;2.53;0.90;;;26.50;63.90;;;;;;4117624;28;20049;-41
2023/02/14 08:58:53;;;;;;;4.60;0.90;;;26.50;63.80;;;;;;4120320;28;20689;-37
2023/02/14 09:01:16;;;;;;;3.00;1.20;;;26.60;63.80;;;;;;4118864;28;20038;-38
2023/02/14 09:03:38;;;;;;;;;;;26.60;63.90;;;;;;4123740;28;20446;-37
2023/02/14 09:06:05;;;;;;;1.45;0.73;;;26.60;64.00;;;;;;4123942;28;20016;-39
2023/02/14 09:08:30;;;;;;;2.63;0.95;;;26.60;64.00;;;;;;4123571;28;20143;-39
2023/02/14 09:10:52;;;;;;;3.65;1.27;;;26.60;63.60;;;;;;4127296;28;20042;-39
2023/02/14 09:13:14;;;;;;;2.85;0.95;;;26.60;63.50;;;;;;4128060;28;20046;-38
2023/02/14 09:15:37;;;;;;;2.70;1.23;;;26.60;63.30;;;;;;4120729;28;20751;-39
2023/02/14 09:17:59;;;;;;;3.03;1.33;;;26.50;63.40;;;;;;4124310;28;20080;-38
2023/02/14 09:20:22;;;;;;;2.45;1.08;;;26.60;63.30;;;;;;4117060;28;20492;-41
2023/02/14 09:22:44;;;;;;;2.47;0.95;;;26.50;63.30;;;;;;4126312;28;20068;-41
2023/02/14 09:25:07;;;;;;;2.88;0.90;;;26.50;63.20;;;;;;4125371;28;20042;-41
2023/02/14 09:27:30;;;;;;;2.55;0.90;;;26.50;63.20;;;;;;4122088;28;20506;-38
2023/02/14 09:29:52;;;;;;;2.17;0.90;;;26.50;63.10;;;;;;4124773;28;20116;-38
2023/02/14 09:32:15;;;;;;;1.85;1.00;;;26.50;63.10;;;;;;4124120;28;20540;-38
2023/02/14 09:34:38;;;;;;;1.90;1.00;;;26.40;63.10;;;;;;4124444;28;20041;-41
2023/02/14 09:39:41;;;;;;;2.75;0.88;;;26.40;63.00;;;;;;4124836;28;20124;-39
2023/02/14 09:42:15;;;;;;;3.13;1.25;;;26.40;63.00;;;;;;4123876;28;20428;-39
2023/02/14 09:44:50;;;;;;;1.73;0.75;;;26.40;62.90;;;;;;4121107;28;20049;-37
2023/02/14 09:47:29;;;;;;;2.30;0.82;;;26.40;63.00;;;;;;4124414;28;20053;-39
2023/02/14 09:49:53;;;;;;;2.35;0.85;;;26.30;63.50;;;;;;4124352;28;20030;-45
2023/02/14 09:52:17;;;;;;;4.68;1.10;;;26.30;62.90;;;;;;4130998;28;20049;-39
2023/02/14 09:54:43;;;;;;;1.92;0.75;;;26.30;62.90;;;;;;4123808;28;20045;-37
2023/02/14 09:57:47;;;;;;;3.30;1.15;;;26.30;62.80;;;;;;4124833;28;20133;-38
2023/02/14 10:00:41;;;;;;;2.35;0.90;;;26.30;62.70;;;;;;4120563;28;20429;-38
2023/02/14 10:03:19;;;;;;;1.33;0.77;;;26.30;62.80;;;;;;4127933;28;20031;-39
2023/02/14 10:05:56;;;;;;;3.10;0.85;;;26.30;62.70;;;;;;4114752;28;20040;-38
2023/02/14 10:08:47;;;;;;;1.83;1.20;;;26.30;62.70;;;;;;4122540;28;20636;-37
2023/02/14 10:11:14;;;;;;;2.10;1.15;;;26.30;62.30;;;;;;4121041;28;20125;-39
2023/02/14 10:14:04;;;;;;;3.30;1.30;;;26.20;62.00;;;;;;4119297;28;20929;-39
2023/02/14 10:16:31;;;;;;;4.20;1.60;;;26.20;62.00;;;;;;4122382;28;20037;-40
2023/02/14 10:18:56;;;;;;;4.95;1.20;;;26.10;62.00;;;;;;4120382;28;20054;-37
2023/02/14 10:21:38;;;;;;;6.63;1.23;;;26.10;62.20;;;;;;4122009;28;20099;-37
2023/02/14 10:24:10;;;;;;;4.10;1.50;;;26.00;62.40;;;;;;4124214;28;20097;-37
2023/02/14 10:26:40;;;;;;;2.60;1.17;;;26.00;62.70;;;;;;4133145;28;20057;-38
2023/02/14 10:29:06;;;;;;;3.20;1.27;;;26.00;62.70;;;;;;4128807;28;20086;-38
2023/02/14 10:31:40;;;;;;;4.03;1.13;;;26.00;62.60;;;;;;4123192;28;20112;-38
2023/02/14 10:34:15;;;;;;;2.63;1.17;;;26.00;62.80;;;;;;4124909;28;20506;-38
2023/02/14 10:36:47;;;;;;;2.05;0.98;;;26.00;63.10;;;;;;4130605;28;20049;-39
2023/02/14 10:39:24;;;;;;;5.20;1.17;;;26.10;63.20;;;;;;4122511;28;20216;-38
2023/02/14 10:42:09;;;;;;;3.28;1.20;;;26.10;63.10;;;;;;4127947;28;20102;-39
2023/02/14 10:44:38;;;;;;;4.45;1.02;;;26.10;62.40;;;;;;4127785;28;20402;-41
2023/02/14 10:47:09;;;;;;;2.92;1.30;;;26.10;62.70;;;;;;4124420;28;20042;-40
2023/02/14 10:50:07;;;;;;;2.35;0.90;;;26.10;62.70;;;;;;4123760;28;20042;-40
2023/02/14 10:52:59;;;;;;;3.10;1.33;;;26.10;62.70;;;;;;4124454;28;20041;-41
2023/02/14 10:55:49;;;;;;;4.60;1.55;;;26.10;62.70;;;;;;4123391;28;20046;-41
2023/02/14 10:58:16;;;;;;;7.03;1.30;;;26.10;62.70;;;;;;4130660;28;20511;-42
2023/02/14 11:00:46;;;;;;;20.70;2.60;;;26.10;62.70;;;;;;4125367;28;21440;-49
2023/02/14 11:03:12;;;;;;;13.55;2.28;;;26.10;62.70;;;;;;4127094;28;20049;-46
2023/02/14 11:05:43;;;;;;;8.50;1.88;;;26.10;62.80;;;;;;4131467;28;20096;-42
2023/02/14 11:08:39;;;;;;;7.00;1.75;;;26.10;62.60;;;;;;4130704;28;20046;-43
2023/02/14 11:11:30;;;;;;;4.35;0.90;;;26.10;62.50;;;;;;4125186;28;20566;-43
2023/02/14 11:13:53;;;;;;;3.90;1.50;;;26.00;62.20;;;;;;4127829;28;20046;-45
2023/02/14 11:16:35;;;;;;;3.30;1.40;;;26.00;62.30;;;;;;4121891;28;20038;-42
2023/02/14 11:19:23;;;;;;;2.30;1.05;;;25.90;62.40;;;;;;4125662;28;20534;-42
2023/02/14 11:21:48;;;;;;;4.22;1.33;;;25.90;62.30;;;;;;4125654;28;20030;-42
2023/02/14 11:24:32;;;;;;;5.00;1.20;;;25.90;62.60;;;;;;4122408;28;20082;-40
2023/02/14 11:27:04;;;;;;;6.43;1.30;;;25.90;62.80;;;;;;4124200;28;20104;-46
2023/02/14 11:29:52;;;;;;;7.10;2.05;;;25.90;62.70;;;;;;4125581;28;20049;-46
2023/02/14 11:32:24;;;;;;;7.07;1.48;;;25.80;63.20;;;;;;4126280;28;20040;-50
2023/02/14 11:35:03;;;;;;;3.92;1.45;;;25.80;63.60;;;;;;4125813;28;20441;-46
2023/02/14 11:37:49;;;;;;;4.10;1.23;;;25.80;63.90;;;;;;4128723;28;20100;-53
2023/02/14 11:40:31;;;;;;;6.82;1.38;;;25.80;64.20;;;;;;4127517;28;20077;-43
2023/02/14 11:42:54;;;;;;;5.85;1.50;;;25.80;64.40;;;;;;4131124;28;20136;-44
2023/02/14 11:45:32;;;;;;;4.32;1.38;;;25.80;64.50;;;;;;4125866;28;20042;-43
2023/02/14 11:48:16;;;;;;;3.63;1.35;;;25.80;64.40;;;;;;4126733;28;20091;-48
2023/02/14 11:50:40;;;;;;;6.73;1.93;;;25.70;64.60;;;;;;4128802;28;20041;-47
2023/02/14 11:53:03;;;;;;;4.25;1.45;;;25.70;64.60;;;;;;4128716;28;20105;-47
2023/02/14 11:55:32;;;;;;;4.70;1.48;;;25.70;64.70;;;;;;4132721;28;20485;-49
2023/02/14 11:57:56;;;;;;;4.07;1.02;;;25.70;64.70;;;;;;4126809;28;20070;-52
2023/02/14 12:00:20;;;;;;;2.88;1.40;;;25.70;64.80;;;;;;4126043;28;20078;-45
2023/02/14 12:02:47;;;;;;;2.85;1.23;;;25.70;64.80;;;;;;4126396;28;20042;-49
2023/02/14 12:05:19;;;;;;;6.53;1.52;;;25.70;64.80;;;;;;4128177;28;20125;-42
2023/02/14 12:07:44;;;;;;;5.85;1.92;;;25.70;64.80;;;;;;4124703;28;20026;-42
2023/02/14 12:10:15;;;;;;;4.80;1.38;;;25.70;64.70;;;;;;4127498;28;20081;-43
2023/02/14 12:12:47;;;;;;;3.92;1.40;;;25.70;64.70;;;;;;4128448;28;20046;-47
2023/02/14 12:15:35;;;;;;;4.68;1.33;;;25.70;64.80;;;;;;4122829;28;20592;-44
2023/02/14 12:18:15;;;;;;;5.30;1.35;;;25.70;64.80;;;;;;4120117;28;20042;-48
2023/02/14 12:21:01;;;;;;;3.05;1.30;;;25.70;64.80;;;;;;4126168;28;20410;-47
2023/02/14 12:23:40;;;;;;;2.97;1.27;;;25.60;64.70;;;;;;4122709;28;20414;-44
2023/02/14 12:26:26;;;;;;;3.75;1.55;;;25.60;64.70;;;;;;4127760;28;20072;-50
2023/02/14 12:28:57;;;;;;;4.70;1.40;;;25.60;64.80;;;;;;4120800;28;20034;-44
2023/02/14 12:31:19;;;;;;;5.38;1.33;;;25.60;64.90;;;;;;4126669;28;20173;-46
2023/02/14 12:33:42;;;;;;;3.63;1.40;;;25.60;64.80;;;;;;4126227;28;20152;-44
2023/02/14 12:36:45;;;;;;;8.07;1.73;;;25.60;64.80;;;;;;4123832;28;20116;-43
2023/02/14 12:39:08;;;;;;;6.22;1.65;;;25.60;65.00;;;;;;4065704;28;20571;-44
2023/02/14 12:41:58;;;;;;;7.80;1.85;;;25.50;65.00;;;;;;4124709;28;20038;-46
2023/02/14 12:44:48;;;;;;;5.30;1.58;;;25.50;64.90;;;;;;4130938;28;20046;-44
2023/02/14 12:47:27;;;;;;;4.78;2.00;;;25.50;64.80;;;;;;4130785;28;20115;-44
2023/02/14 12:50:19;;;;;;;5.07;1.48;;;25.50;64.80;;;;;;4124567;28;20038;-44
2023/02/14 12:53:00;;;;;;;2.67;0.90;;;25.50;64.80;;;;;;4124431;28;20061;-45
2023/02/14 12:56:05;;;;;;;3.05;1.33;;;25.40;64.70;;;;;;4125636;28;20042;-43
2023/02/14 12:58:49;;;;;;;2.80;1.25;;;25.50;64.80;;;;;;4125107;28;20104;-41
2023/02/14 13:01:36;;;;;;;3.10;1.30;;;25.40;64.90;;;;;;4131575;28;20469;-43
2023/02/14 13:04:16;;;;;;;2.78;1.58;;;25.40;64.90;;;;;;4127795;28;20050;-48
2023/02/14 13:06:49;;;;;;;3.50;1.63;;;25.40;64.90;;;;;;4130582;28;20042;-48
2023/02/14 13:09:52;;;;;;;4.05;1.10;;;25.40;64.90;;;;;;4127668;28;20045;-47
2023/02/14 13:12:39;;;;;;;5.13;1.23;;;25.40;64.90;;;;;;4100468;28;20568;-46
2023/02/14 13:15:11;;;;;;;3.97;1.38;;;25.30;64.90;;;;;;4123984;28;20053;-43